Airfield :
LOGIN :

Register | Disclaimer

   EN    FR    IT 

 










Legend :    VFR   Marginal VFR   IFR   Intensive IFR   Very Intensive IFR
Visi :
Ceiling :
>= 8 km
>= 3000ft
5 to 8 km
1000 to 3000 ft
1500m to 5 km
500 to 1000 ft
800 to 1500m
200 to 500 ft
< 800m
< 200 ft
Symbols :   Thunderstorms  Fog  Heavy snow  Heavy precipitations  Wind > 20 kt
SIGMETs :     Misc.  Thunderstorms  Icing  Turbulence  Mountain Waves  Volcanic Ashes







- Airport Elevation : 50 ft
- IATA code : KOI
- Download approach charts


EGPA - Kirkwall

CURRENT METAR :
  • 220520Z AUTO 19013KT 9999 NCD 09/06 Q1011

EXPIRED METARs :
  • 220450Z AUTO 19018KT 9999 NCD 09/06 Q1011
  • 220420Z AUTO 19020KT 9999 NCD 09/07 Q1012
  • 220350Z AUTO 18021KT 9999 NCD 09/08 Q1012
  • 220320Z AUTO 17020KT 9999 NCD 09/08 Q1013
  • 220250Z AUTO 17018KT 9999 NCD 09/08 Q1014

TAF TAF EGPA
Valid from the 22 at 06:00 until the 22 at 15:00 UTC


220501Z 2206/2215 19020KT 9999 SCT020
TEMPO 2206/2211 19022G32KT
TEMPO 2210/2212 4000 RA
BECMG 2211/2213 24017KT
TEMPO 2211/2215 24020G30KT
No reported NOTAMs for that airfield.
2 SIGMETs reported for the Scottish FIR (EGPX) :
 
Severe turbulence
EGPX SIGMET 03 VALID 220500/220900 EGRR
EGPX SCOTTISH FIR SEV TURB FCST NW OF LINE N6100 W00400 - N5520 W00655 SFC/FL060 MOV E 15KT NC=
Severe mountain waves
EGPX SIGMET 02 VALID 220300/220700 EGRR
EGPX SCOTTISH FIR SEV MTW FCST WI N6000 W00500 - N6000 W00130 - N5700 E00000 - N5700 W00430 - N6000 W00500 FL030/150 STNR NC=



MET'MAP, your aeronautical weather chart ! - Copyright ORBIFLY December 2007 - Disclaimer

ORBIFLY MET'MAP TEAM :

Programming & Development : Alexandra Zaïnal
Concept & Development : Baudouin d'Aumeries
Co-Development & Prog : Marc-Olivier Méhu
Technical & hardware support : Manuel Goepfert

Contact : metmap@orbifly.com




SOURCES & CREDITS :

   NOAA